Time;durP1;ratioP1;P1;durP2;ratioP2;P2;SDS_P1;SDS_P2;PMS_P1;PMS_P2;Temp;Humidity;BMP_temperature;BMP_pressure;BME280_temperature;BME280_humidity;BME280_pressure;Samples;Min_cycle;Max_cycle;Signal;HPM_P1;HPM_P2
2023/04/03 00:01:25;;;;;;;7.40;2.70;;;3.10;99.90;;;;;;4922292;29;20488;-79
2023/04/03 00:03:54;;;;;;;7.23;3.23;;;3.10;99.90;;;;;;4921550;29;20450;-79
2023/04/03 00:06:23;;;;;;;5.03;2.10;;;3.00;99.90;;;;;;4921825;29;20492;-79
2023/04/03 00:08:52;;;;;;;4.80;2.40;;;3.00;99.90;;;;;;4921934;29;20566;-79
2023/04/03 00:11:21;;;;;;;7.30;2.70;;;2.90;99.90;;;;;;4922723;29;20490;-79
2023/04/03 00:13:51;;;;;;;5.90;3.07;;;2.90;99.90;;;;;;4924299;29;20527;-80
2023/04/03 00:16:25;;;;;;;5.20;2.20;;;2.90;99.90;;;;;;4922784;29;20963;-80
2023/04/03 00:18:57;;;;;;;7.83;3.00;;;2.90;99.90;;;;;;4921797;29;20463;-80
2023/04/03 00:21:25;;;;;;;9.47;2.60;;;2.80;99.90;;;;;;4920591;29;20514;-80
2023/04/03 00:23:54;;;;;;;9.63;2.57;;;2.80;99.90;;;;;;4920555;29;20491;-80
2023/04/03 00:26:22;;;;;;;8.80;2.77;;;2.90;99.90;;;;;;4920176;29;20540;-80
2023/04/03 00:28:50;;;;;;;5.83;2.17;;;2.80;99.90;;;;;;4920976;29;20528;-81
2023/04/03 00:31:18;;;;;;;8.00;3.40;;;2.80;99.90;;;;;;4920837;29;20468;-81
2023/04/03 00:33:48;;;;;;;6.70;2.70;;;2.80;99.90;;;;;;4921065;29;20985;-81
2023/04/03 00:36:16;;;;;;;5.23;2.57;;;3.20;99.90;;;;;;4921309;29;20547;-81
2023/04/03 00:38:44;;;;;;;6.80;2.97;;;2.70;99.90;;;;;;4920415;29;20489;-80
2023/04/03 00:41:13;;;;;;;6.13;2.57;;;2.70;99.90;;;;;;4920612;29;20931;-81
2023/04/03 00:43:41;;;;;;;5.17;2.60;;;2.60;99.90;;;;;;4921061;29;20455;-81
2023/04/03 00:46:09;;;;;;;5.73;2.67;;;2.60;99.90;;;;;;4919827;29;20869;-81
2023/04/03 00:48:40;;;;;;;6.13;2.63;;;2.60;99.90;;;;;;4918809;29;20963;-81
2023/04/03 00:51:14;;;;;;;4.67;2.70;;;2.50;99.90;;;;;;4919831;29;21005;-81
2023/04/03 00:53:48;;;;;;;4.87;2.47;;;2.50;99.90;;;;;;4920078;29;20453;-81
2023/04/03 00:56:18;;;;;;;5.17;3.10;;;2.40;99.90;;;;;;4921028;29;20503;-81
2023/04/03 00:58:52;;;;;;;4.87;2.80;;;2.40;99.90;;;;;;4921137;29;20453;-80
2023/04/03 01:01:24;;;;;;;7.37;2.37;;;2.80;99.90;;;;;;4920524;29;20482;-80
2023/04/03 01:03:53;;;;;;;6.30;2.77;;;2.30;99.90;;;;;;4921709;29;20564;-80
2023/04/03 01:06:31;;;;;;;6.73;2.70;;;2.30;99.90;;;;;;4924219;29;20458;-80
2023/04/03 01:09:06;;;;;;;6.40;2.30;;;2.20;99.90;;;;;;4922793;29;20458;-80
2023/04/03 01:11:34;;;;;;;5.83;3.23;;;2.10;99.90;;;;;;4921077;29;20468;-80
2023/04/03 01:14:03;;;;;;;6.50;2.60;;;2.20;99.90;;;;;;4921663;29;20515;-80
2023/04/03 01:16:32;;;;;;;5.63;2.60;;;2.10;99.90;;;;;;4924788;29;20466;-80
2023/04/03 01:19:01;;;;;;;8.07;3.07;;;2.10;99.90;;;;;;4924796;29;20478;-80
2023/04/03 01:22:03;;;;;;;7.03;2.70;;;2.00;99.90;;;;;;4924376;29;20494;-80
2023/04/03 01:24:35;;;;;;;5.43;2.97;;;2.00;99.90;;;;;;4923854;29;20931;-80
2023/04/03 01:27:10;;;;;;;5.80;3.13;;;1.90;99.90;;;;;;4924745;29;20459;-80
2023/04/03 01:29:39;;;;;;;6.53;2.73;;;1.90;99.90;;;;;;4924405;29;20546;-80
2023/04/03 01:32:09;;;;;;;5.40;2.77;;;1.90;99.90;;;;;;4926326;29;20479;-80
2023/04/03 01:34:37;;;;;;;6.50;2.90;;;1.80;99.90;;;;;;4926303;29;20453;-80
2023/04/03 01:37:07;;;;;;;5.00;2.80;;;1.70;99.90;;;;;;4927861;29;20965;-80
2023/04/03 01:39:35;;;;;;;5.10;2.70;;;1.80;99.90;;;;;;4925731;29;20454;-80
2023/04/03 01:42:04;;;;;;;6.50;3.03;;;1.70;99.90;;;;;;4924844;29;20484;-80
2023/04/03 01:44:36;;;;;;;5.63;3.27;;;1.70;99.90;;;;;;4925808;29;20476;-80
2023/04/03 01:47:07;;;;;;;7.10;2.90;;;1.70;99.90;;;;;;4925870;29;20548;-80
2023/04/03 01:49:37;;;;;;;10.10;3.30;;;1.70;99.90;;;;;;4925913;29;20456;-80
2023/04/03 01:52:06;;;;;;;6.50;2.90;;;1.60;99.90;;;;;;4925168;29;20563;-80
2023/04/03 01:54:34;;;;;;;6.67;2.90;;;2.00;99.90;;;;;;4926318;29;20872;-80
2023/04/03 01:57:02;;;;;;;6.47;3.10;;;1.50;99.90;;;;;;4924750;29;21042;-80
2023/04/03 01:59:31;;;;;;;5.00;2.80;;;1.50;99.90;;;;;;4925635;29;20982;-80
2023/04/03 02:02:00;;;;;;;5.50;2.90;;;1.60;99.90;;;;;;4924636;29;20482;-80
2023/04/03 02:04:28;;;;;;;8.00;2.90;;;1.50;99.90;;;;;;4924479;29;20491;-81
2023/04/03 02:06:58;;;;;;;6.10;3.00;;;1.40;99.90;;;;;;4924162;29;20555;-80
2023/04/03 02:09:27;;;;;;;7.40;3.33;;;1.40;99.90;;;;;;4924543;29;20456;-81
2023/04/03 02:11:55;;;;;;;6.77;3.57;;;1.40;99.90;;;;;;4924469;29;20475;-80
2023/04/03 02:14:26;;;;;;;4.50;2.50;;;1.30;99.90;;;;;;4925696;29;20447;-80
2023/04/03 02:16:55;;;;;;;6.73;2.80;;;1.40;99.90;;;;;;4923758;29;20455;-81
2023/04/03 02:19:23;;;;;;;7.63;3.17;;;1.40;99.90;;;;;;4923529;29;20484;-80
2023/04/03 02:21:52;;;;;;;7.37;3.10;;;1.70;99.90;;;;;;4924406;29;20483;-81
2023/04/03 02:24:22;;;;;;;6.13;2.87;;;1.60;99.90;;;;;;4924209;29;20999;-81
2023/04/03 02:26:50;;;;;;;6.70;2.80;;;1.20;99.90;;;;;;4923305;29;20468;-81
2023/04/03 02:29:18;;;;;;;6.07;3.30;;;1.30;99.90;;;;;;4923695;29;20457;-80
2023/04/03 02:31:47;;;;;;;5.80;3.00;;;1.20;99.90;;;;;;4922140;29;20578;-81
2023/04/03 02:34:16;;;;;;;9.20;3.13;;;1.20;99.90;;;;;;4922092;29;20456;-80
2023/04/03 02:36:45;;;;;;;7.50;3.33;;;1.10;99.90;;;;;;4923144;29;20464;-80
2023/04/03 02:39:14;;;;;;;8.37;3.43;;;1.10;99.90;;;;;;4923575;29;20454;-81
2023/04/03 02:41:44;;;;;;;10.37;3.40;;;1.10;99.90;;;;;;4923333;29;20567;-81
2023/04/03 02:44:19;;;;;;;7.10;3.30;;;1.10;99.90;;;;;;4922877;29;20471;-80
2023/04/03 02:46:47;;;;;;;7.33;3.10;;;1.00;99.90;;;;;;4923396;29;20494;-81
2023/04/03 02:49:16;;;;;;;7.70;3.70;;;1.00;99.90;;;;;;4922486;29;20489;-80
2023/04/03 02:51:44;;;;;;;8.83;3.20;;;1.00;99.90;;;;;;4922261;29;20473;-80
2023/04/03 02:54:13;;;;;;;6.50;3.23;;;0.90;99.90;;;;;;4922727;29;20458;-80
2023/04/03 02:56:47;;;;;;;7.53;3.80;;;0.90;99.90;;;;;;4924053;29;20439;-80
2023/04/03 02:59:16;;;;;;;6.83;3.43;;;0.90;99.90;;;;;;4922270;29;21007;-80
2023/04/03 03:01:45;;;;;;;8.57;3.93;;;0.90;99.90;;;;;;4922324;29;21019;-80
2023/04/03 03:04:13;;;;;;;9.20;3.97;;;0.90;99.90;;;;;;4922252;29;20508;-80
2023/04/03 03:06:41;;;;;;;7.20;3.30;;;0.90;99.90;;;;;;4922682;29;20501;-80
2023/04/03 03:09:12;;;;;;;8.93;3.40;;;0.80;99.90;;;;;;4921835;29;20443;-79
2023/04/03 03:11:43;;;;;;;7.53;3.67;;;0.90;99.90;;;;;;4921793;29;20481;-79
2023/04/03 03:14:15;;;;;;;13.73;6.27;;;0.80;99.90;;;;;;4921961;29;20461;-79
2023/04/03 03:16:43;;;;;;;19.17;11.53;;;0.80;99.90;;;;;;4920594;29;20457;-79
2023/04/03 03:19:12;;;;;;;13.07;7.40;;;0.80;99.90;;;;;;4921491;29;20456;-79
2023/04/03 03:21:40;;;;;;;8.70;5.60;;;0.80;99.90;;;;;;4921199;29;20507;-79
2023/04/03 03:24:09;;;;;;;10.20;4.80;;;0.70;99.90;;;;;;4921888;29;20485;-79
2023/04/03 03:26:37;;;;;;;10.10;4.33;;;0.70;99.90;;;;;;4921116;29;20454;-79
2023/04/03 03:29:05;;;;;;;8.43;4.50;;;0.70;99.90;;;;;;4920236;29;20450;-79
2023/04/03 03:31:35;;;;;;;10.90;5.40;;;0.70;99.90;;;;;;4919755;29;20497;-79
2023/04/03 03:34:03;;;;;;;9.93;6.23;;;0.70;99.90;;;;;;4920495;29;20492;-79
2023/04/03 03:36:32;;;;;;;10.53;6.03;;;0.60;99.90;;;;;;4920542;29;20459;-79
2023/04/03 03:39:01;;;;;;;10.40;5.10;;;0.60;99.90;;;;;;4920109;29;20456;-79
2023/04/03 03:41:29;;;;;;;10.80;4.93;;;0.60;99.90;;;;;;4919179;29;20563;-79
2023/04/03 03:43:58;;;;;;;7.73;5.30;;;0.60;99.90;;;;;;4919007;29;20456;-79
2023/04/03 03:46:29;;;;;;;8.30;5.27;;;0.60;99.90;;;;;;4918731;29;20980;-79
2023/04/03 03:48:59;;;;;;;8.43;4.97;;;0.60;99.90;;;;;;4919210;29;21026;-79
2023/04/03 03:51:27;;;;;;;11.23;3.80;;;0.50;99.90;;;;;;4918894;29;20481;-79
2023/04/03 03:53:57;;;;;;;8.63;4.13;;;0.50;99.90;;;;;;4918847;29;20465;-78
2023/04/03 03:56:25;;;;;;;6.93;4.20;;;0.50;99.90;;;;;;4921298;29;20542;-78
2023/04/03 03:58:55;;;;;;;7.70;4.37;;;0.50;99.90;;;;;;4921385;29;20457;-78
2023/04/03 04:01:24;;;;;;;7.40;4.70;;;0.40;99.90;;;;;;4918493;29;20902;-79
2023/04/03 04:03:53;;;;;;;10.43;4.83;;;0.40;99.90;;;;;;4918034;29;20483;-79
2023/04/03 04:06:27;;;;;;;8.33;4.10;;;0.50;99.90;;;;;;4918057;29;20476;-79
2023/04/03 04:08:59;;;;;;;8.20;3.70;;;0.40;99.90;;;;;;4917521;29;20452;-79
2023/04/03 04:11:28;;;;;;;10.13;4.47;;;0.40;99.90;;;;;;4917270;29;20457;-78
2023/04/03 04:13:57;;;;;;;10.07;4.40;;;1.20;99.90;;;;;;4917731;29;20468;-78
2023/04/03 04:16:28;;;;;;;7.63;4.53;;;0.30;99.90;;;;;;4916375;29;20445;-78
2023/04/03 04:18:59;;;;;;;11.10;4.37;;;0.30;99.90;;;;;;4917506;29;20544;-79
2023/04/03 04:21:29;;;;;;;8.07;4.50;;;0.50;99.90;;;;;;4917682;29;20472;-78
2023/04/03 04:23:57;;;;;;;8.40;4.33;;;0.30;99.90;;;;;;4917317;29;20480;-78
2023/04/03 04:26:27;;;;;;;6.50;4.20;;;0.40;99.90;;;;;;4917966;29;20484;-78
2023/04/03 04:28:55;;;;;;;7.80;4.63;;;0.40;99.90;;;;;;4917185;29;20466;-78
2023/04/03 04:31:24;;;;;;;8.97;4.73;;;0.20;99.90;;;;;;4916920;29;20510;-78
2023/04/03 04:33:53;;;;;;;10.50;4.80;;;0.20;99.90;;;;;;4917162;29;20456;-78
2023/04/03 04:36:22;;;;;;;8.20;4.27;;;0.20;99.90;;;;;;4917180;29;20451;-79
2023/04/03 04:38:52;;;;;;;7.80;5.13;;;0.20;99.90;;;;;;4916963;29;20463;-78
2023/04/03 04:41:23;;;;;;;9.23;4.90;;;0.10;99.90;;;;;;4917112;29;20479;-78
2023/04/03 04:43:53;;;;;;;8.30;4.37;;;0.20;99.90;;;;;;4917219;29;20488;-79
2023/04/03 04:46:22;;;;;;;7.13;4.80;;;0.20;99.90;;;;;;4918047;29;20448;-78
2023/04/03 04:48:55;;;;;;;8.63;4.53;;;0.10;99.90;;;;;;4916769;29;20463;-79
2023/04/03 04:51:26;;;;;;;9.37;4.57;;;0.10;99.90;;;;;;4916992;29;20531;-78
2023/04/03 04:53:58;;;;;;;11.30;5.07;;;0.10;99.90;;;;;;4917437;29;21026;-78
2023/04/03 04:56:26;;;;;;;9.20;5.23;;;0.10;99.90;;;;;;4916799;29;20452;-78
2023/04/03 04:58:56;;;;;;;11.63;5.77;;;0.10;99.90;;;;;;4916643;29;20456;-78
2023/04/03 05:01:26;;;;;;;8.23;5.83;;;0.10;99.90;;;;;;4916560;29;20567;-78
2023/04/03 05:04:00;;;;;;;10.90;6.03;;;0.10;99.90;;;;;;4916811;29;20495;-78
2023/04/03 05:06:29;;;;;;;10.90;6.60;;;0.10;99.90;;;;;;4916827;29;20450;-78
2023/04/03 05:09:00;;;;;;;10.10;6.33;;;0.70;99.90;;;;;;4916808;29;20885;-79
2023/04/03 05:11:29;;;;;;;11.70;6.43;;;0.00;99.90;;;;;;4917196;29;20931;-78
2023/04/03 05:13:57;;;;;;;6.90;5.07;;;0.00;99.90;;;;;;4916856;29;20891;-78
2023/04/03 05:16:26;;;;;;;9.87;6.23;;;0.00;99.90;;;;;;4915905;29;20464;-79
2023/04/03 05:18:56;;;;;;;10.57;6.60;;;0.00;99.90;;;;;;4914007;29;20960;-79
2023/04/03 05:21:25;;;;;;;7.90;5.80;;;0.00;99.90;;;;;;4897661;29;21003;-79
2023/04/03 05:23:54;;;;;;;8.60;5.67;;;0.00;99.90;;;;;;4897196;29;20485;-78
2023/04/03 05:26:25;;;;;;;9.20;6.30;;;0.00;99.90;;;;;;4901129;29;20453;-78
2023/04/03 05:28:54;;;;;;;8.20;6.50;;;0.00;99.90;;;;;;4901673;29;20456;-79
2023/04/03 05:31:23;;;;;;;10.77;6.30;;;0.00;99.90;;;;;;4903314;29;21015;-80
2023/04/03 05:33:52;;;;;;;10.50;5.93;;;-0.10;99.90;;;;;;4903239;29;20457;-79
2023/04/03 05:36:22;;;;;;;6.97;5.50;;;-0.10;99.90;;;;;;4900559;29;20449;-79
2023/04/03 05:38:57;;;;;;;9.33;6.47;;;0.00;99.90;;;;;;4902694;29;20445;-80
2023/04/03 05:41:28;;;;;;;10.77;6.03;;;-0.10;99.90;;;;;;4903786;29;21055;-80
2023/04/03 05:43:56;;;;;;;10.10;6.57;;;-0.10;99.90;;;;;;4901894;29;20481;-79
2023/04/03 05:46:26;;;;;;;11.00;6.90;;;-0.10;99.90;;;;;;4901841;29;20461;-79
2023/04/03 05:48:57;;;;;;;11.87;7.13;;;0.00;99.90;;;;;;4901935;29;20952;-79
2023/04/03 05:51:32;;;;;;;10.40;6.07;;;-0.10;99.90;;;;;;4901686;29;20470;-79
2023/04/03 05:54:12;;;;;;;7.63;5.43;;;-0.10;99.90;;;;;;4901191;29;20445;-80
2023/04/03 05:56:42;;;;;;;9.10;4.70;;;0.00;99.90;;;;;;4902822;29;20501;-79
2023/04/03 05:59:11;;;;;;;9.23;5.27;;;0.00;99.90;;;;;;4903547;29;20548;-80
2023/04/03 06:01:40;;;;;;;9.17;4.90;;;0.00;99.90;;;;;;4904642;29;20469;-79
2023/04/03 06:04:09;;;;;;;10.20;6.20;;;0.10;99.90;;;;;;4905106;29;20485;-79
2023/04/03 06:06:46;;;;;;;14.27;9.20;;;0.10;99.90;;;;;;4904826;29;20533;-79
2023/04/03 06:09:15;;;;;;;11.23;7.83;;;0.10;99.90;;;;;;4905545;29;20551;-80
2023/04/03 06:11:46;;;;;;;11.93;8.13;;;0.20;99.90;;;;;;4905809;29;20469;-79
2023/04/03 06:14:15;;;;;;;12.03;8.20;;;0.20;99.90;;;;;;4906526;29;20455;-78
2023/04/03 06:16:43;;;;;;;9.53;5.43;;;0.30;99.90;;;;;;4907244;29;20500;-79
2023/04/03 06:19:13;;;;;;;6.70;4.47;;;0.00;99.90;;;;;;4906289;29;20460;-79
2023/04/03 06:21:47;;;;;;;9.97;5.40;;;0.70;99.90;;;;;;4906377;29;20477;-79
2023/04/03 06:24:17;;;;;;;7.70;5.17;;;0.90;99.90;;;;;;4906324;29;20477;-79
2023/04/03 06:26:46;;;;;;;7.10;4.87;;;1.20;99.90;;;;;;4906564;29;20477;-79
2023/04/03 06:29:15;;;;;;;7.40;4.33;;;1.50;99.90;;;;;;4906556;29;20459;-79
2023/04/03 06:31:44;;;;;;;8.37;4.30;;;1.80;99.90;;;;;;4905858;29;20536;-79
2023/04/03 06:34:13;;;;;;;7.53;4.70;;;2.10;99.90;;;;;;4906821;29;20516;-79
2023/04/03 06:36:44;;;;;;;8.73;5.00;;;2.40;99.90;;;;;;4906726;29;20530;-79
2023/04/03 06:39:15;;;;;;;9.50;4.40;;;2.70;99.90;;;;;;4908979;29;20466;-80
2023/04/03 06:41:44;;;;;;;7.23;3.77;;;2.90;99.90;;;;;;4908634;29;20485;-80
2023/04/03 06:44:15;;;;;;;11.53;4.57;;;3.20;99.90;;;;;;4909231;29;20531;-80
2023/04/03 06:46:45;;;;;;;11.30;4.90;;;3.40;99.90;;;;;;4908208;29;20517;-80
2023/04/03 06:49:14;;;;;;;8.83;4.57;;;3.60;99.90;;;;;;4910131;29;20449;-80
2023/04/03 06:51:43;;;;;;;6.40;3.57;;;3.80;99.90;;;;;;4908557;29;20501;-80
2023/04/03 06:54:11;;;;;;;6.70;3.70;;;4.00;99.90;;;;;;4908813;29;20457;-80
2023/04/03 06:56:39;;;;;;;7.37;3.80;;;4.10;99.90;;;;;;4909026;29;20445;-80
2023/04/03 06:59:08;;;;;;;8.00;4.13;;;4.30;99.90;;;;;;4909924;29;20461;-78
2023/04/03 07:01:38;;;;;;;6.87;3.70;;;4.40;99.90;;;;;;4905566;29;20512;-80
2023/04/03 07:04:07;;;;;;;10.07;3.90;;;4.60;99.90;;;;;;4917741;29;20536;-82
2023/04/03 07:06:36;;;;;;;7.93;3.80;;;4.70;99.90;;;;;;4922197;29;20468;-82
2023/04/03 07:09:04;;;;;;;8.40;3.83;;;4.80;99.90;;;;;;4924418;29;20468;-81
2023/04/03 07:11:33;;;;;;;7.57;3.70;;;4.90;99.90;;;;;;4919424;29;20488;-81
2023/04/03 07:14:01;;;;;;;11.30;3.63;;;5.00;99.90;;;;;;4919240;29;20452;-81
2023/04/03 07:16:31;;;;;;;9.03;3.47;;;5.00;99.90;;;;;;4911911;29;20469;-81
2023/04/03 07:19:01;;;;;;;6.77;3.47;;;5.00;99.90;;;;;;4902010;29;20489;-83
2023/04/03 07:21:29;;;;;;;5.67;3.33;;;5.00;99.90;;;;;;4902369;29;20485;-83
2023/04/03 07:23:58;;;;;;;6.97;3.47;;;5.00;99.90;;;;;;4912248;29;20480;-82
2023/04/03 07:26:26;;;;;;;7.23;3.10;;;5.00;99.90;;;;;;4918742;29;20459;-79
2023/04/03 07:28:54;;;;;;;7.10;3.07;;;5.10;99.90;;;;;;4916936;29;20477;-81
2023/04/03 07:31:23;;;;;;;8.00;3.70;;;5.10;99.90;;;;;;4917854;29;20548;-81
2023/04/03 07:33:57;;;;;;;8.50;3.70;;;5.10;99.90;;;;;;4918378;29;20459;-81
2023/04/03 07:36:27;;;;;;;6.83;3.37;;;5.20;99.90;;;;;;4917535;29;20448;-81
2023/04/03 07:38:56;;;;;;;4.90;3.20;;;5.20;99.90;;;;;;4918238;29;20461;-81
2023/04/03 07:41:27;;;;;;;6.80;3.37;;;5.30;99.90;;;;;;4918360;29;20473;-81
2023/04/03 07:43:56;;;;;;;9.37;3.70;;;5.30;99.90;;;;;;4917641;29;20489;-81
2023/04/03 07:46:25;;;;;;;7.33;3.60;;;5.40;99.90;;;;;;4917578;29;20481;-81
2023/04/03 07:48:54;;;;;;;7.70;3.50;;;5.50;99.90;;;;;;4919054;29;20453;-81
2023/04/03 07:51:29;;;;;;;5.23;2.87;;;5.60;99.90;;;;;;4918798;29;20473;-81
2023/04/03 07:53:59;;;;;;;4.83;2.80;;;5.80;99.90;;;;;;4918137;29;20522;-81
2023/04/03 07:56:27;;;;;;;7.80;3.30;;;6.00;99.90;;;;;;4919055;29;20461;-81
2023/04/03 07:58:59;;;;;;;7.40;2.90;;;6.20;99.90;;;;;;4918049;29;20453;-80
2023/04/03 08:01:28;;;;;;;6.93;3.23;;;6.40;99.90;;;;;;4918766;29;20543;-82
2023/04/03 08:03:59;;;;;;;5.67;2.90;;;6.60;99.90;;;;;;4916656;29;20458;-81
2023/04/03 08:06:31;;;;;;;6.10;3.40;;;6.70;99.90;;;;;;4916862;29;20480;-81
2023/04/03 08:09:14;;;;;;;4.77;2.77;;;6.90;99.90;;;;;;4917721;29;20450;-80
2023/04/03 08:11:42;;;;;;;5.53;2.20;;;7.00;99.90;;;;;;4917730;29;20508;-81
2023/04/03 08:14:16;;;;;;;6.53;1.77;;;7.20;99.90;;;;;;4918560;29;20444;-81
2023/04/03 08:16:45;;;;;;;7.17;2.10;;;7.30;99.90;;;;;;4917920;29;20456;-81
2023/04/03 08:19:15;;;;;;;5.83;2.00;;;7.40;99.90;;;;;;4945014;29;20513;-81
2023/04/03 08:21:56;;;;;;;3.90;1.63;;;7.50;99.90;;;;;;4955087;29;20471;-81
2023/04/03 08:24:25;;;;;;;4.90;1.50;;;7.70;99.90;;;;;;4954182;29;20484;-82
2023/04/03 08:26:53;;;;;;;4.00;1.83;;;7.80;99.90;;;;;;4953299;29;20478;-81
2023/04/03 08:29:22;;;;;;;4.87;1.83;;;7.90;99.90;;;;;;4953239;29;20463;-81
2023/04/03 08:31:50;;;;;;;4.20;1.80;;;7.90;99.90;;;;;;4953005;29;20480;-80
2023/04/03 08:34:20;;;;;;;4.13;1.80;;;8.00;99.90;;;;;;4952819;29;20538;-80
2023/04/03 08:36:48;;;;;;;5.53;1.83;;;8.10;99.90;;;;;;4943080;29;20469;-80
2023/04/03 08:39:18;;;;;;;4.70;1.80;;;8.20;99.90;;;;;;4931492;29;20718;-83
2023/04/03 08:41:47;;;;;;;3.80;1.60;;;8.30;99.90;;;;;;4935729;29;20472;-82
2023/04/03 08:44:26;;;;;;;3.97;1.50;;;8.40;99.90;;;;;;4935101;29;20495;-82
2023/04/03 08:47:05;;;;;;;5.80;2.00;;;8.50;99.90;;;;;;4933530;29;20449;-81
2023/04/03 08:49:38;;;;;;;4.27;1.73;;;8.60;99.90;;;;;;4932720;29;20489;-82
2023/04/03 08:52:14;;;;;;;4.97;1.60;;;8.70;99.90;;;;;;4932559;29;20484;-82
2023/04/03 08:54:51;;;;;;;4.03;1.50;;;8.80;99.90;;;;;;4932375;29;20428;-81
2023/04/03 08:57:30;;;;;;;4.63;1.20;;;8.80;99.90;;;;;;4933693;29;20463;-81
2023/04/03 09:00:02;;;;;;;3.97;1.50;;;8.80;99.90;;;;;;4932888;29;20479;-81
2023/04/03 09:02:35;;;;;;;4.00;1.37;;;8.70;99.90;;;;;;4931924;29;20499;-82
2023/04/03 09:05:13;;;;;;;3.23;1.07;;;8.80;99.90;;;;;;4932392;29;20536;-82
2023/04/03 09:07:45;;;;;;;4.60;1.70;;;8.80;99.90;;;;;;4932635;29;20508;-82
2023/04/03 09:10:25;;;;;;;2.77;0.90;;;8.70;99.90;;;;;;4932081;29;20484;-82
2023/04/03 09:13:00;;;;;;;3.53;1.10;;;8.80;99.90;;;;;;4931796;29;20458;-82
2023/04/03 09:15:29;;;;;;;4.13;1.10;;;8.80;99.90;;;;;;4933285;29;20459;-82
2023/04/03 09:18:16;;;;;;;4.30;1.60;;;8.90;99.90;;;;;;4932473;29;20440;-82
2023/04/03 09:20:50;;;;;;;3.63;1.40;;;9.00;99.90;;;;;;4932735;29;20440;-82
2023/04/03 09:23:25;;;;;;;4.43;1.60;;;9.00;99.90;;;;;;4932413;29;20459;-82
2023/04/03 09:26:03;;;;;;;4.17;1.17;;;9.00;99.90;;;;;;4932209;29;20471;-81
2023/04/03 09:28:35;;;;;;;4.40;1.20;;;9.00;99.90;;;;;;4932149;29;20480;-81
2023/04/03 09:31:22;;;;;;;5.20;1.50;;;9.10;99.90;;;;;;4933011;29;20496;-80
2023/04/03 09:33:53;;;;;;;3.90;1.30;;;9.20;99.90;;;;;;4932039;29;20448;-80
2023/04/03 09:36:46;;;;;;;4.80;1.67;;;9.20;99.60;;;;;;4935196;29;20594;-81
2023/04/03 09:39:16;;;;;;;3.80;1.37;;;9.20;99.50;;;;;;4933733;29;20472;-81
2023/04/03 09:42:01;;;;;;;3.80;1.40;;;9.20;99.30;;;;;;4935776;29;20479;-82
2023/04/03 09:44:32;;;;;;;4.10;1.70;;;9.20;99.00;;;;;;4935719;29;20467;-82
2023/04/03 09:47:18;;;;;;;5.40;1.50;;;9.20;99.00;;;;;;4936527;29;20480;-83
2023/04/03 09:49:46;;;;;;;8.07;1.53;;;9.30;99.00;;;;;;4938346;29;20477;-82
2023/04/03 09:52:24;;;;;;;3.67;1.47;;;9.30;98.80;;;;;;4937289;29;20484;-82
2023/04/03 09:54:52;;;;;;;4.50;1.70;;;9.30;98.60;;;;;;4937869;29;20479;-81
2023/04/03 09:57:22;;;;;;;3.67;1.30;;;9.30;98.40;;;;;;4941132;29;20447;-81
2023/04/03 09:59:59;;;;;;;3.20;1.23;;;9.20;98.10;;;;;;4941745;29;20469;-81
2023/04/03 10:02:36;;;;;;;3.17;1.23;;;9.20;98.00;;;;;;4942142;29;20459;-81
2023/04/03 10:05:06;;;;;;;4.00;1.23;;;9.30;98.10;;;;;;4943265;29;20440;-80
2023/04/03 10:07:38;;;;;;;3.50;1.27;;;9.30;97.90;;;;;;4925187;29;20468;-81
2023/04/03 10:10:19;;;;;;;4.20;1.33;;;9.30;97.50;;;;;;4924014;29;20777;-81
2023/04/03 10:12:49;;;;;;;3.63;1.30;;;9.20;97.60;;;;;;4929407;29;20479;-82
2023/04/03 10:15:19;;;;;;;3.73;1.37;;;9.20;97.50;;;;;;4942854;29;20986;-81
2023/04/03 10:17:58;;;;;;;3.90;1.40;;;9.30;97.40;;;;;;4943384;29;20467;-81
2023/04/03 10:20:35;;;;;;;3.73;1.40;;;9.30;97.00;;;;;;4943869;29;20877;-82
2023/04/03 10:23:16;;;;;;;3.20;1.40;;;9.20;97.00;;;;;;4943398;29;20443;-81
2023/04/03 10:25:52;;;;;;;5.07;1.77;;;9.20;97.00;;;;;;4943498;29;20475;-81
2023/04/03 10:28:28;;;;;;;4.53;1.20;;;9.30;96.90;;;;;;4944000;29;20462;-81
2023/04/03 10:31:01;;;;;;;3.20;1.20;;;9.20;96.70;;;;;;4941267;29;20486;-81
2023/04/03 10:33:44;;;;;;;3.03;1.37;;;9.30;97.00;;;;;;4940065;29;20443;-82
2023/04/03 10:36:24;;;;;;;3.20;1.20;;;9.30;96.80;;;;;;4940272;29;20459;-81
2023/04/03 10:39:01;;;;;;;2.90;1.10;;;9.30;96.30;;;;;;4939741;29;20498;-82
2023/04/03 10:41:40;;;;;;;3.43;1.10;;;9.30;96.20;;;;;;4940422;29;20499;-81
2023/04/03 10:44:20;;;;;;;3.40;1.10;;;9.30;96.00;;;;;;4939971;29;20832;-82
2023/04/03 10:46:51;;;;;;;3.73;1.13;;;9.20;95.30;;;;;;4939360;29;20495;-82
2023/04/03 10:49:35;;;;;;;5.13;1.63;;;9.20;95.30;;;;;;4940468;29;20934;-82
2023/04/03 10:52:18;;;;;;;3.77;1.30;;;9.10;95.30;;;;;;4939836;29;20491;-82
2023/04/03 10:54:55;;;;;;;3.30;1.30;;;9.20;95.50;;;;;;4940385;29;20946;-82
2023/04/03 10:57:25;;;;;;;5.83;1.40;;;9.20;95.70;;;;;;4941151;29;20838;-81
2023/04/03 11:00:00;;;;;;;4.17;1.20;;;9.20;95.50;;;;;;4939969;29;20475;-82
2023/04/03 11:02:31;;;;;;;3.23;1.20;;;9.10;95.60;;;;;;4940184;29;20478;-82
2023/04/03 11:05:04;;;;;;;4.70;1.50;;;9.20;95.70;;;;;;4940155;29;20457;-82
2023/04/03 11:07:38;;;;;;;2.70;1.10;;;9.20;95.60;;;;;;4939349;29;20475;-82
2023/04/03 11:10:14;;;;;;;4.27;1.50;;;9.20;95.40;;;;;;4940238;29;21029;-82
2023/04/03 11:12:44;;;;;;;3.53;1.40;;;9.20;95.50;;;;;;4935279;29;20486;-82
2023/04/03 11:15:18;;;;;;;4.50;1.63;;;9.20;95.20;;;;;;4920554;29;20451;-81
2023/04/03 11:17:53;;;;;;;4.40;1.53;;;9.10;95.20;;;;;;4920365;29;20440;-81
2023/04/03 11:20:27;;;;;;;3.60;1.30;;;9.20;95.20;;;;;;4921873;29;20435;-82
2023/04/03 11:23:03;;;;;;;4.63;1.60;;;9.20;95.30;;;;;;4920559;29;20448;-82
2023/04/03 11:25:33;;;;;;;4.30;1.70;;;9.20;95.20;;;;;;4920775;29;20445;-82
2023/04/03 11:28:03;;;;;;;4.40;1.80;;;9.20;95.20;;;;;;4920801;29;20437;-82
2023/04/03 11:30:38;;;;;;;3.90;1.67;;;9.20;95.40;;;;;;4920314;29;20444;-82
2023/04/03 11:33:20;;;;;;;10.03;8.90;;;9.20;95.30;;;;;;4920825;29;20459;-82
2023/04/03 11:35:51;;;;;;;4.90;2.20;;;9.20;95.20;;;;;;4920877;29;20885;-81
2023/04/03 11:38:27;;;;;;;2.90;1.30;;;9.30;95.00;;;;;;4920232;29;20487;-80
2023/04/03 11:40:57;;;;;;;3.90;1.80;;;9.20;94.80;;;;;;4917806;29;20479;-81
2023/04/03 11:43:29;;;;;;;4.20;1.70;;;9.20;95.10;;;;;;4921022;29;20459;-81
2023/04/03 11:46:01;;;;;;;3.50;1.20;;;9.20;95.00;;;;;;4931763;29;20464;-83
2023/04/03 11:48:50;;;;;;;5.53;1.87;;;9.30;94.90;;;;;;4927352;29;20441;-83
2023/04/03 11:51:43;;;;;;;4.33;1.50;;;9.40;95.00;;;;;;4927186;29;20476;-82
2023/04/03 11:54:43;;;;;;;4.60;2.10;;;9.40;95.00;;;;;;4922750;29;20645;-82
2023/04/03 11:57:47;;;;;;;3.30;1.43;;;9.40;94.80;;;;;;4927047;29;20444;-82
2023/04/03 12:00:55;;;;;;;4.40;1.83;;;9.30;94.90;;;;;;4896586;29;20572;-82
2023/04/03 12:04:07;;;;;;;3.33;1.50;;;9.20;94.90;;;;;;4930657;29;20456;-83
2023/04/03 12:07:00;;;;;;;3.30;1.30;;;9.10;94.70;;;;;;4927068;29;20472;-82
2023/04/03 12:09:55;;;;;;;3.87;1.90;;;9.00;95.00;;;;;;4927332;29;20452;-82
2023/04/03 12:12:38;;;;;;;3.80;1.50;;;9.10;95.10;;;;;;4913605;29;20999;-83
2023/04/03 12:15:42;;;;;;;3.43;1.20;;;9.10;95.00;;;;;;4945715;29;20447;-83
2023/04/03 12:18:41;;;;;;;3.97;1.80;;;9.20;95.10;;;;;;4941110;29;20977;-82
2023/04/03 12:21:12;;;;;;;6.27;2.00;;;9.20;95.10;;;;;;4943039;29;20578;-83
2023/04/03 12:24:06;;;;;;;5.30;2.20;;;9.30;95.20;;;;;;4943007;29;20448;-82
2023/04/03 12:26:41;;;;;;;4.10;1.77;;;9.30;94.60;;;;;;4943319;29;20563;-83
2023/04/03 12:29:21;;;;;;;5.07;2.00;;;9.40;94.80;;;;;;4946378;29;20475;-82
2023/04/03 12:32:02;;;;;;;3.43;1.43;;;9.40;94.60;;;;;;4949630;29;20586;-83
2023/04/03 12:34:47;;;;;;;3.50;1.60;;;9.40;94.60;;;;;;4949653;29;20459;-83
2023/04/03 12:37:43;;;;;;;5.03;1.77;;;9.30;94.60;;;;;;4950292;29;20447;-83
2023/04/03 12:40:22;;;;;;;4.23;1.63;;;9.20;94.50;;;;;;4949085;29;20553;-82
2023/04/03 12:43:33;;;;;;;4.03;1.67;;;9.20;94.50;;;;;;4957710;29;20506;-79
2023/04/03 12:46:04;;;;;;;3.67;1.53;;;9.30;94.30;;;;;;4920843;29;20487;-82
2023/04/03 12:48:47;;;;;;;4.23;1.80;;;9.30;94.60;;;;;;4953356;29;20459;-79
2023/04/03 12:51:17;;;;;;;4.03;2.03;;;9.40;94.60;;;;;;4944212;29;20534;-82
2023/04/03 12:53:48;;;;;;;3.80;1.60;;;9.40;94.60;;;;;;4939561;29;20459;-83
2023/04/03 12:56:23;;;;;;;4.67;1.90;;;9.40;94.60;;;;;;4935822;29;20463;-80
2023/04/03 12:58:52;;;;;;;6.20;1.90;;;9.50;94.50;;;;;;4941425;29;20450;-78
2023/04/03 13:01:23;;;;;;;5.93;2.20;;;9.50;94.40;;;;;;4940977;29;20483;-78
2023/04/03 13:03:55;;;;;;;3.43;1.77;;;9.50;94.40;;;;;;4943165;29;20428;-78
2023/04/03 13:06:27;;;;;;;4.40;1.93;;;9.60;94.30;;;;;;4942756;29;20466;-78
2023/04/03 13:08:59;;;;;;;4.73;2.20;;;9.60;94.30;;;;;;4939256;29;20461;-79
2023/04/03 13:11:31;;;;;;;3.80;1.83;;;9.60;94.30;;;;;;4928976;29;20491;-78
2023/04/03 13:14:01;;;;;;;4.63;1.60;;;9.70;94.30;;;;;;4925296;29;20948;-78
2023/04/03 13:16:31;;;;;;;4.93;1.70;;;9.70;94.30;;;;;;4923167;29;20480;-77
2023/04/03 13:19:00;;;;;;;3.70;1.83;;;9.70;94.20;;;;;;4926881;29;20447;-78
2023/04/03 13:21:31;;;;;;;4.40;2.00;;;9.60;94.10;;;;;;4932182;29;20464;-79
2023/04/03 13:24:04;;;;;;;4.13;1.83;;;9.60;94.30;;;;;;4931194;29;20472;-79